createdAt,value
2019-04-23T00:00:45.501Z,11.0
2019-04-23T00:01:49.272Z,11.1
2019-04-23T00:02:50.661Z,11.2
2019-04-23T00:03:47.628Z,11.1
2019-04-23T00:04:48.053Z,11.1
2019-04-23T00:06:15.196Z,11.1
2019-04-23T00:06:59.370Z,11.1
2019-04-23T00:07:56.187Z,11.0
2019-04-23T00:08:58.099Z,10.9
2019-04-23T00:10:07.928Z,11.0
2019-04-23T00:10:58.920Z,10.9
2019-04-23T00:12:01.814Z,11.0
2019-04-23T00:13:12.867Z,10.9
2019-04-23T00:14:05.671Z,11.0
2019-04-23T00:15:07.538Z,10.9
2019-04-23T00:16:13.528Z,10.9
2019-04-23T00:17:11.519Z,10.9
2019-04-23T00:18:07.872Z,10.9
2019-04-23T00:19:02.558Z,11.0
2019-04-23T00:20:09.573Z,10.9
2019-04-23T00:21:13.750Z,11.0
2019-04-23T00:22:07.299Z,10.9
2019-04-23T00:23:10.918Z,10.8
2019-04-23T00:24:23.317Z,10.7
2019-04-23T00:28:24.397Z,10.7
2019-04-23T00:29:19.006Z,10.7
2019-04-23T00:30:31.388Z,10.7
2019-04-23T00:31:23.993Z,10.7
2019-04-23T00:33:27.031Z,10.8
2019-04-23T00:34:38.071Z,10.8
2019-04-23T00:35:26.080Z,10.7
2019-04-23T00:36:32.163Z,10.7
2019-04-23T00:38:33.855Z,10.6
2019-04-23T00:39:34.341Z,10.6
2019-04-23T00:40:31.786Z,10.6
2019-04-23T00:41:38.650Z,10.6
2019-04-23T00:42:38.505Z,10.5
2019-04-23T00:43:38.913Z,10.4
2019-04-23T00:44:40.116Z,10.4
2019-04-23T00:45:41.215Z,10.5
2019-04-23T00:47:38.434Z,10.3
2019-04-23T00:48:44.089Z,10.4
2019-04-23T00:49:40.339Z,10.4
2019-04-23T00:50:49.199Z,10.4
2019-04-23T00:51:47.738Z,10.3
2019-04-23T00:52:45.844Z,10.3
2019-04-23T00:53:44.209Z,10.3
2019-04-23T00:54:51.912Z,10.4
2019-04-23T00:55:47.631Z,10.3
2019-04-23T00:56:54.484Z,10.3
2019-04-23T00:57:48.759Z,10.4
2019-04-23T00:58:56.462Z,10.3
2019-04-23T01:00:52.797Z,10.2
2019-04-23T01:01:56.576Z,10.2
2019-04-23T01:02:59.049Z,10.2
2019-04-23T01:03:58.280Z,10.3
2019-04-23T01:05:04.833Z,10.1
2019-04-23T01:06:00.627Z,10.1
2019-04-23T01:08:07.061Z,10.2
2019-04-23T01:09:03.847Z,10.3
2019-04-23T01:10:10.138Z,10.3
2019-04-23T01:11:21.067Z,10.4
2019-04-23T01:12:14.142Z,10.3
2019-04-23T01:13:14.952Z,10.3
2019-04-23T01:14:08.316Z,10.4
2019-04-23T01:16:11.615Z,10.3
2019-04-23T01:17:18.570Z,10.3
2019-04-23T01:18:19.068Z,10.4
2019-04-23T01:19:20.692Z,10.4
2019-04-23T01:20:14.592Z,10.4
2019-04-23T01:20:56.460Z,10.4
2019-04-23T01:21:57.936Z,10.5
2019-04-23T01:22:58.979Z,10.5
2019-04-23T01:24:05.693Z,10.5
2019-04-23T01:25:10.793Z,10.4
2019-04-23T01:26:20.700Z,10.5
2019-04-23T01:27:49.168Z,10.5
2019-04-23T01:28:26.683Z,10.6
2019-04-23T01:29:34.078Z,10.6
2019-04-23T01:30:27.930Z,10.7
2019-04-23T01:31:49.276Z,10.6
2019-04-23T01:32:32.116Z,10.7
2019-04-23T01:33:43.107Z,10.6
2019-04-23T01:34:42.450Z,10.6
2019-04-23T01:35:34.217Z,10.6
2019-04-23T01:36:51.598Z,10.5
2019-04-23T01:38:45.879Z,10.7
2019-04-23T01:39:49.964Z,10.6
2019-04-23T01:40:40.755Z,10.6
2019-04-23T01:41:50.791Z,10.6
2019-04-23T01:43:00.015Z,10.6
2019-04-23T01:43:47.121Z,10.6
2019-04-23T01:44:54.117Z,10.5
2019-04-23T01:45:40.975Z,10.5
2019-04-23T01:46:56.120Z,10.4
2019-04-23T01:50:06.651Z,10.3
2019-04-23T01:52:00.299Z,10.3
2019-04-23T01:54:01.795Z,10.2
2019-04-23T01:55:08.137Z,10.2
2019-04-23T01:57:09.422Z,10.2
2019-04-23T01:58:26.095Z,10.2
2019-04-23T01:59:12.403Z,10.1
2019-04-23T02:00:16.134Z,10.1
2019-04-23T02:01:11.636Z,10.1
2019-04-23T02:02:14.382Z,10.1
2019-04-23T02:03:15.530Z,10.0
2019-04-23T02:04:26.579Z,10.0
2019-04-23T02:05:24.526Z,10.1
2019-04-23T02:06:20.544Z,10.0
2019-04-23T02:07:24.368Z,9.9
2019-04-23T02:08:19.342Z,10.0
2019-04-23T02:09:25.305Z,9.9
2019-04-23T02:10:29.550Z,10.0
2019-04-23T02:11:25.559Z,9.9
2019-04-23T02:12:22.322Z,9.9
2019-04-23T02:13:33.910Z,9.9
2019-04-23T02:14:29.652Z,9.8
2019-04-23T02:15:34.982Z,9.7
2019-04-23T02:16:33.914Z,9.7
2019-04-23T02:17:26.742Z,9.6
2019-04-23T02:18:33.897Z,9.7
2019-04-23T02:19:44.300Z,9.7
2019-04-23T02:20:36.035Z,9.7
2019-04-23T02:22:56.272Z,9.7
2019-04-23T02:23:35.866Z,9.6
2019-04-23T02:24:41.392Z,9.7
2019-04-23T02:25:44.310Z,9.5
2019-04-23T02:27:43.846Z,9.5
2019-04-23T02:28:49.351Z,9.5
2019-04-23T02:29:51.276Z,9.5
2019-04-23T02:31:58.255Z,9.5
2019-04-23T02:33:12.815Z,9.5
2019-04-23T02:35:16.981Z,9.4
2019-04-23T02:37:00.340Z,9.5
2019-04-23T02:38:27.329Z,9.5
2019-04-23T02:38:55.477Z,9.5
2019-04-23T02:40:23.880Z,9.5
2019-04-23T02:42:25.127Z,9.7
2019-04-23T02:45:09.416Z,9.6
2019-04-23T02:49:32.312Z,9.7
2019-04-23T02:51:17.976Z,9.7
2019-04-23T02:52:21.787Z,9.6
2019-04-23T02:54:38.177Z,9.7
2019-04-23T02:55:39.254Z,9.7
2019-04-23T02:56:47.343Z,9.6
2019-04-23T02:57:41.544Z,9.5
2019-04-23T02:59:44.605Z,9.5
2019-04-23T03:01:31.566Z,9.6
2019-04-23T03:02:45.192Z,9.5
2019-04-23T03:03:42.828Z,9.5
2019-04-23T03:04:40.000Z,9.5
2019-04-23T03:05:46.015Z,9.5
2019-04-23T03:07:45.913Z,9.5
2019-04-23T03:10:56.607Z,9.4
2019-04-23T03:14:12.118Z,9.5
2019-04-23T03:15:06.232Z,9.4
2019-04-23T03:16:19.898Z,9.4
2019-04-23T03:18:12.424Z,9.5
2019-04-23T03:20:11.197Z,9.5
2019-04-23T03:23:22.873Z,9.6
2019-04-23T03:25:10.313Z,9.6
2019-04-23T03:26:26.328Z,9.7
2019-04-23T03:28:21.225Z,9.7
2019-04-23T03:29:21.843Z,9.7
2019-04-23T03:35:08.686Z,9.7
2019-04-23T03:36:37.976Z,9.7
2019-04-23T03:37:32.202Z,9.7
2019-04-23T03:38:38.009Z,9.6
2019-04-23T03:39:46.206Z,9.7
2019-04-23T03:40:46.262Z,9.6
2019-04-23T03:41:39.658Z,9.7
2019-04-23T03:42:53.862Z,9.6
2019-04-23T03:43:38.914Z,9.7
2019-04-23T03:44:49.604Z,9.7
2019-04-23T03:45:56.419Z,9.7
2019-04-23T03:46:49.897Z,9.7
2019-04-23T03:47:37.608Z,9.8
2019-04-23T03:49:48.721Z,9.7
2019-04-23T03:50:39.054Z,9.8
2019-04-23T03:51:56.795Z,9.8
2019-04-23T03:56:19.029Z,9.8
2019-04-23T03:57:52.368Z,9.8
2019-04-23T03:59:05.933Z,9.8
2019-04-23T04:00:03.478Z,9.7
2019-04-23T04:02:31.371Z,9.6
2019-04-23T04:04:22.630Z,9.7
2019-04-23T04:05:10.841Z,9.7
2019-04-23T04:08:56.027Z,9.7
2019-04-23T04:10:40.890Z,9.6
2019-04-23T04:11:19.245Z,9.6
2019-04-23T04:14:32.151Z,9.5
2019-04-23T04:16:28.281Z,9.3
2019-04-23T04:17:35.545Z,9.3
2019-04-23T04:18:48.878Z,9.3
2019-04-23T04:21:36.330Z,9.4
2019-04-23T04:22:46.657Z,9.4
2019-04-23T04:24:48.653Z,9.4
2019-04-23T04:25:41.177Z,9.4
2019-04-23T04:26:55.786Z,9.5
2019-04-23T04:28:03.567Z,9.5
2019-04-23T04:28:48.629Z,9.6
2019-04-23T04:30:00.999Z,9.6
2019-04-23T04:30:48.144Z,9.6
2019-04-23T04:32:00.272Z,9.7
2019-04-23T04:32:56.921Z,9.7
2019-04-23T04:35:12.556Z,9.8
2019-04-23T04:36:04.777Z,9.6
2019-04-23T04:38:09.430Z,9.8
2019-04-23T04:39:08.131Z,9.7
2019-04-23T04:40:23.563Z,9.8
2019-04-23T04:41:01.023Z,9.9
2019-04-23T04:42:06.103Z,9.8
2019-04-23T04:43:13.824Z,9.8
2019-04-23T04:44:33.335Z,9.8
2019-04-23T04:45:14.130Z,9.9
2019-04-23T04:47:09.857Z,9.9
2019-04-23T04:48:09.943Z,9.9
2019-04-23T04:49:12.085Z,9.9
2019-04-23T04:50:08.156Z,9.9
2019-04-23T04:51:24.261Z,9.9
2019-04-23T04:53:37.982Z,9.9
2019-04-23T04:54:21.232Z,9.9
2019-04-23T04:55:21.515Z,9.8
2019-04-23T04:56:35.976Z,9.9
2019-04-23T05:01:30.124Z,10.1
2019-04-23T05:03:29.638Z,10.1
2019-04-23T05:06:01.803Z,10.2
2019-04-23T05:06:44.306Z,10.2
2019-04-23T05:07:54.809Z,10.4
2019-04-23T05:12:54.992Z,10.5
2019-04-23T05:15:00.812Z,10.7
2019-04-23T05:15:51.851Z,10.6
2019-04-23T05:17:11.179Z,10.7
2019-04-23T05:17:59.634Z,10.7
2019-04-23T05:19:02.531Z,10.8
2019-04-23T05:19:58.280Z,10.8
2019-04-23T05:21:12.234Z,10.8
2019-04-23T05:23:08.810Z,10.8
2019-04-23T05:24:06.841Z,11.0
2019-04-23T05:24:57.140Z,11.0
2019-04-23T05:26:02.018Z,11.5
2019-04-23T05:27:04.623Z,11.9
2019-04-23T05:28:09.630Z,12.6
2019-04-23T05:29:06.414Z,13.2
2019-04-23T05:30:09.976Z,13.5
2019-04-23T05:31:05.741Z,13.3
2019-04-23T05:32:10.828Z,13.2
2019-04-23T05:33:14.539Z,12.9
2019-04-23T05:35:16.905Z,12.8
2019-04-23T05:36:22.836Z,12.8
2019-04-23T05:37:11.531Z,12.9
2019-04-23T05:39:27.991Z,12.9
2019-04-23T05:41:27.073Z,12.5
2019-04-23T05:42:19.828Z,12.4
2019-04-23T05:43:19.272Z,12.5
2019-04-23T05:44:41.686Z,12.6
2019-04-23T05:45:21.784Z,12.4
2019-04-23T05:46:33.812Z,12.5
2019-04-23T05:47:29.173Z,12.3
2019-04-23T05:48:24.854Z,12.4
2019-04-23T05:49:24.823Z,12.3
2019-04-23T05:50:39.165Z,12.1
2019-04-23T05:51:38.796Z,12.2
2019-04-23T05:53:33.902Z,12.2
2019-04-23T05:54:37.490Z,12.1
2019-04-23T05:55:34.079Z,12.3
2019-04-23T05:56:38.554Z,12.3
2019-04-23T05:57:38.910Z,12.3
2019-04-23T05:59:34.248Z,12.4
2019-04-23T06:00:48.834Z,12.5
2019-04-23T06:01:54.154Z,12.4
2019-04-23T06:02:48.572Z,12.5
2019-04-23T06:03:52.638Z,12.5
2019-04-23T06:04:49.628Z,12.5
2019-04-23T06:07:11.309Z,12.5
2019-04-23T06:08:53.482Z,12.5
2019-04-23T06:10:02.858Z,12.7
2019-04-23T06:10:58.681Z,12.6
2019-04-23T06:13:03.186Z,12.7
2019-04-23T06:14:09.754Z,12.8
2019-04-23T06:14:59.523Z,12.8
2019-04-23T06:16:12.283Z,12.8
2019-04-23T06:17:03.264Z,12.8
2019-04-23T06:18:14.523Z,12.9
2019-04-23T06:19:08.053Z,12.8
2019-04-23T06:20:09.244Z,13.0
2019-04-23T06:21:10.109Z,12.9
2019-04-23T06:22:28.877Z,12.8
2019-04-23T06:23:18.109Z,12.9
2019-04-23T06:24:19.652Z,12.9
2019-04-23T06:25:21.641Z,13.0
2019-04-23T06:26:24.351Z,12.9
2019-04-23T06:29:26.084Z,13.1
2019-04-23T06:31:03.053Z,13.2
2019-04-23T06:31:26.650Z,13.3
2019-04-23T06:32:22.765Z,13.4
2019-04-23T06:33:25.657Z,13.3
2019-04-23T06:34:33.914Z,13.3
2019-04-23T06:35:45.447Z,13.3
2019-04-23T06:37:39.735Z,13.5
2019-04-23T06:38:42.811Z,13.5
2019-04-23T06:39:38.184Z,13.5
2019-04-23T06:40:34.051Z,13.5
2019-04-23T06:41:36.225Z,13.6
2019-04-23T06:42:34.870Z,13.6
2019-04-23T06:43:42.287Z,13.7
2019-04-23T06:44:37.663Z,13.7
2019-04-23T06:45:41.672Z,13.9
2019-04-23T06:47:48.118Z,13.9
2019-04-23T06:48:47.215Z,13.9
2019-04-23T06:50:59.371Z,13.9
2019-04-23T06:52:06.752Z,14.0
2019-04-23T06:52:50.023Z,14.1
2019-04-23T06:53:53.373Z,14.1
2019-04-23T06:55:56.375Z,14.2
2019-04-23T06:57:57.100Z,14.4
2019-04-23T06:58:58.879Z,14.3
2019-04-23T07:00:02.404Z,14.3
2019-04-23T07:01:03.331Z,14.1
2019-04-23T07:02:06.409Z,14.2
2019-04-23T07:03:11.416Z,14.3
2019-04-23T07:04:06.320Z,14.2
2019-04-23T07:05:10.388Z,14.2
2019-04-23T07:07:30.955Z,14.4
2019-04-23T07:08:11.610Z,14.5
2019-04-23T07:09:12.083Z,14.5
2019-04-23T07:10:16.282Z,14.8
2019-04-23T07:12:18.169Z,15.3
2019-04-23T07:13:22.815Z,15.4
2019-04-23T07:14:25.600Z,15.3
2019-04-23T07:15:40.738Z,15.5
2019-04-23T07:16:16.160Z,15.5
2019-04-23T07:17:16.018Z,15.7
2019-04-23T07:18:23.741Z,15.9
2019-04-23T07:19:26.903Z,16.0
2019-04-23T07:20:21.509Z,16.1
2019-04-23T07:21:21.923Z,16.1
2019-04-23T07:22:21.672Z,16.0
2019-04-23T07:23:35.664Z,15.8
2019-04-23T07:24:21.535Z,15.8
2019-04-23T07:25:29.543Z,15.8
2019-04-23T07:27:27.749Z,15.7
2019-04-23T07:28:37.273Z,15.8
2019-04-23T07:29:31.299Z,15.8
2019-04-23T07:30:35.915Z,15.8
2019-04-23T07:31:50.974Z,15.8
2019-04-23T07:32:35.975Z,15.9
2019-04-23T07:33:44.012Z,15.9
2019-04-23T07:34:41.610Z,15.9
2019-04-23T07:35:39.793Z,15.7
2019-04-23T07:36:55.752Z,15.8
2019-04-23T07:37:53.529Z,15.7
2019-04-23T07:38:55.037Z,15.7
2019-04-23T07:39:57.102Z,15.8
2019-04-23T07:40:47.966Z,15.8
2019-04-23T07:41:59.406Z,15.6
2019-04-23T07:42:53.086Z,15.8
2019-04-23T07:44:02.730Z,15.9
2019-04-23T07:44:56.387Z,15.9
2019-04-23T07:46:08.133Z,15.9
2019-04-23T07:47:11.557Z,15.9
2019-04-23T07:48:08.032Z,16.0
2019-04-23T07:48:56.740Z,16.1
2019-04-23T07:50:09.538Z,16.2
2019-04-23T07:51:14.085Z,16.3
2019-04-23T07:52:11.053Z,16.2
2019-04-23T07:54:11.359Z,16.0
2019-04-23T07:55:13.740Z,16.2
2019-04-23T07:56:07.356Z,16.3
2019-04-23T07:57:15.391Z,16.1
2019-04-23T07:58:19.565Z,16.2
2019-04-23T07:59:14.279Z,16.1
2019-04-23T08:00:35.323Z,16.2
2019-04-23T08:01:12.532Z,16.3
2019-04-23T08:02:19.385Z,16.5
2019-04-23T08:03:30.724Z,16.3
2019-04-23T08:04:18.311Z,16.6
2019-04-23T08:05:22.820Z,16.7
2019-04-23T08:06:17.938Z,16.7
2019-04-23T08:07:19.942Z,16.9
2019-04-23T08:08:16.737Z,16.8
2019-04-23T08:09:30.098Z,16.9
2019-04-23T08:10:27.828Z,17.2
2019-04-23T08:11:34.317Z,16.9
2019-04-23T08:12:32.046Z,17.0
2019-04-23T08:13:39.801Z,17.0
2019-04-23T08:14:32.975Z,17.1
2019-04-23T08:15:36.948Z,17.1
2019-04-23T08:16:33.603Z,17.0
2019-04-23T08:17:37.514Z,17.2
2019-04-23T08:18:36.537Z,16.9
2019-04-23T08:20:46.978Z,16.8
2019-04-23T08:21:36.344Z,17.0
2019-04-23T08:22:40.219Z,17.1
2019-04-23T08:23:44.101Z,17.1
2019-04-23T08:24:50.574Z,17.3
2019-04-23T08:25:56.391Z,17.5
2019-04-23T08:26:52.060Z,17.6
2019-04-23T08:27:42.146Z,17.3
2019-04-23T08:28:58.357Z,17.3
2019-04-23T08:29:48.831Z,17.3
2019-04-23T08:30:52.785Z,17.3
2019-04-23T08:32:00.640Z,17.3
2019-04-23T08:32:57.618Z,17.1
2019-04-23T08:34:11.083Z,17.2
2019-04-23T08:34:58.803Z,17.4
2019-04-23T08:36:04.056Z,17.5
2019-04-23T08:37:05.078Z,17.7
2019-04-23T08:38:11.947Z,17.6
2019-04-23T08:39:05.477Z,17.6
2019-04-23T08:40:02.517Z,17.5
2019-04-23T08:41:20.644Z,17.6
2019-04-23T08:42:28.446Z,17.8
2019-04-23T08:43:20.881Z,17.9
2019-04-23T08:44:18.274Z,18.1
2019-04-23T08:45:15.396Z,18.1
2019-04-23T08:46:13.982Z,18.0
2019-04-23T08:49:25.760Z,18.6
2019-04-23T08:50:21.593Z,18.4
2019-04-23T08:51:28.363Z,18.5
2019-04-23T08:52:18.244Z,18.7
2019-04-23T08:54:39.713Z,19.0
2019-04-23T08:56:38.631Z,18.9
2019-04-23T08:57:30.472Z,18.8
2019-04-23T09:01:37.477Z,19.1
2019-04-23T09:02:47.691Z,19.2
2019-04-23T09:04:50.267Z,19.4
2019-04-23T09:05:46.805Z,19.4
2019-04-23T09:06:36.997Z,19.5
2019-04-23T09:07:45.342Z,19.5
2019-04-23T09:08:48.065Z,19.6
2019-04-23T09:09:55.173Z,19.4
2019-04-23T09:10:47.950Z,19.3
2019-04-23T09:11:59.503Z,19.4
2019-04-23T09:13:01.081Z,19.7
2019-04-23T09:14:58.348Z,20.2
2019-04-23T09:15:55.472Z,20.0
2019-04-23T09:16:58.043Z,19.9
2019-04-23T09:19:02.655Z,19.7
2019-04-23T09:21:03.572Z,19.8
2019-04-23T09:22:08.960Z,20.1
2019-04-23T09:22:55.073Z,20.4
2019-04-23T09:24:07.324Z,20.2
2019-04-23T09:25:11.624Z,20.2
2019-04-23T09:26:05.472Z,20.2
2019-04-23T09:27:23.367Z,20.4
2019-04-23T09:28:12.995Z,20.6
2019-04-23T09:29:14.763Z,20.5
2019-04-23T09:30:13.499Z,20.5
2019-04-23T09:33:28.300Z,20.1
2019-04-23T09:34:17.118Z,20.3
2019-04-23T09:35:24.435Z,20.6
2019-04-23T09:36:20.467Z,20.4
2019-04-23T09:38:43.260Z,20.4
2019-04-23T09:39:27.728Z,20.5
2019-04-23T09:40:39.126Z,20.8
2019-04-23T09:42:31.979Z,21.2
2019-04-23T09:45:46.128Z,21.2
2019-04-23T09:46:53.205Z,21.0
2019-04-23T09:48:48.532Z,20.8
2019-04-23T09:49:44.416Z,20.6
2019-04-23T09:50:41.579Z,21.0
2019-04-23T09:51:45.197Z,21.2
2019-04-23T09:53:00.269Z,21.2
2019-04-23T09:53:48.793Z,21.2
2019-04-23T09:55:11.997Z,21.6
2019-04-23T09:55:41.768Z,21.3
2019-04-23T09:56:47.431Z,21.3
2019-04-23T09:58:00.589Z,21.1
2019-04-23T09:58:51.741Z,20.9
2019-04-23T09:59:55.017Z,21.0
2019-04-23T10:00:52.679Z,21.2
2019-04-23T10:01:45.474Z,21.5
2019-04-23T10:02:40.916Z,21.8
2019-04-23T10:03:41.226Z,22.1
2019-04-23T10:04:44.826Z,22.2
2019-04-23T10:05:45.096Z,22.1
2019-04-23T10:06:36.480Z,22.1
2019-04-23T10:07:44.249Z,22.3
2019-04-23T10:08:39.519Z,22.3
2019-04-23T10:09:34.249Z,22.2
2019-04-23T10:10:34.433Z,22.0
2019-04-23T10:11:35.131Z,22.3
2019-04-23T10:12:35.902Z,22.2
2019-04-23T10:13:36.545Z,22.0
2019-04-23T10:14:38.558Z,21.8
2019-04-23T10:15:41.119Z,21.7
2019-04-23T10:16:38.889Z,21.5
2019-04-23T10:17:40.276Z,21.4
2019-04-23T10:18:41.367Z,21.3
2019-04-23T10:19:40.826Z,21.3
2019-04-23T10:20:42.646Z,21.2
2019-04-23T10:21:43.644Z,21.0
2019-04-23T10:22:44.149Z,21.2
2019-04-23T10:23:43.481Z,21.1
2019-04-23T10:24:45.447Z,21.2
2019-04-23T10:25:45.789Z,21.4
2019-04-23T10:26:46.076Z,21.6
2019-04-23T10:27:52.951Z,21.7
2019-04-23T10:28:47.668Z,21.7
2019-04-23T10:29:47.939Z,21.5
2019-04-23T10:30:49.058Z,21.7
2019-04-23T10:31:49.381Z,21.9
2019-04-23T10:32:49.744Z,21.9
2019-04-23T10:33:50.553Z,22.2
2019-04-23T10:35:03.829Z,22.4
2019-04-23T10:36:00.332Z,21.9
2019-04-23T10:36:53.639Z,22.1
2019-04-23T10:38:01.820Z,22.2
2019-04-23T10:39:00.660Z,22.2
2019-04-23T10:39:59.245Z,21.9
2019-04-23T10:40:56.134Z,21.9
2019-04-23T10:41:57.583Z,22.3
2019-04-23T10:42:59.704Z,22.7
2019-04-23T10:43:58.710Z,22.2
2019-04-23T10:45:10.903Z,22.2
2019-04-23T10:46:16.946Z,22.2
2019-04-23T10:47:25.440Z,22.5
2019-04-23T10:48:33.029Z,22.1
2019-04-23T10:50:40.649Z,22.5
2019-04-23T10:51:33.871Z,22.7
2019-04-23T10:52:36.362Z,22.7
2019-04-23T10:53:39.940Z,23.1
2019-04-23T10:54:43.372Z,22.9
2019-04-23T10:55:46.784Z,22.9
2019-04-23T10:56:46.612Z,23.2
2019-04-23T10:57:39.180Z,22.9
2019-04-23T10:58:39.279Z,23.4
2019-04-23T10:59:44.720Z,23.3
2019-04-23T11:00:44.979Z,23.3
2019-04-23T11:01:56.630Z,23.3
2019-04-23T11:02:48.810Z,22.9
2019-04-23T11:05:59.059Z,23.1
2019-04-23T11:07:17.080Z,23.1
2019-04-23T11:07:47.190Z,23.3
2019-04-23T11:09:10.191Z,23.5
2019-04-23T11:10:03.686Z,23.9
2019-04-23T11:11:09.295Z,24.4
2019-04-23T11:12:12.510Z,24.4
2019-04-23T11:13:10.759Z,24.4
2019-04-23T11:14:13.389Z,23.9
2019-04-23T11:15:22.839Z,23.5
2019-04-23T11:16:40.056Z,22.9
2019-04-23T11:17:19.042Z,22.7
2019-04-23T11:18:06.852Z,22.9
2019-04-23T11:19:21.168Z,22.8
2019-04-23T11:20:27.397Z,23.1
2019-04-23T11:21:23.745Z,23.4
2019-04-23T11:22:36.154Z,23.6
2019-04-23T11:23:15.055Z,23.6
2019-04-23T11:24:30.517Z,23.6
2019-04-23T11:25:32.973Z,23.4
2019-04-23T11:26:28.582Z,22.8
2019-04-23T11:27:32.924Z,22.5
2019-04-23T11:28:27.425Z,22.3
2019-04-23T11:29:35.668Z,22.5
2019-04-23T11:30:32.599Z,22.3
2019-04-23T11:31:39.268Z,22.6
2019-04-23T11:33:51.844Z,22.9
2019-04-23T11:34:56.749Z,23.1
2019-04-23T11:36:01.386Z,23.0
2019-04-23T11:39:45.066Z,24.0
2019-04-23T11:40:40.398Z,24.0
2019-04-23T11:41:51.729Z,23.8
2019-04-23T11:42:49.616Z,23.7
2019-04-23T11:43:46.434Z,23.8
2019-04-23T11:44:46.091Z,23.7
2019-04-23T11:49:19.904Z,23.6
2019-04-23T11:52:17.804Z,24.0
2019-04-23T11:53:07.386Z,24.0
2019-04-23T11:54:07.447Z,23.8
2019-04-23T11:55:22.803Z,23.6
2019-04-23T11:56:12.115Z,23.4
2019-04-23T11:58:13.594Z,23.1
2019-04-23T11:59:16.349Z,23.1
2019-04-23T12:00:13.826Z,23.3
2019-04-23T12:02:12.039Z,23.6
2019-04-23T12:03:07.706Z,23.7
2019-04-23T12:05:26.907Z,24.2
2019-04-23T12:06:25.063Z,24.4
2019-04-23T12:07:22.831Z,24.7
2019-04-23T12:08:36.805Z,25.2
2019-04-23T12:09:38.219Z,24.4
2019-04-23T12:12:33.355Z,24.1
2019-04-23T12:13:38.321Z,24.1
2019-04-23T12:15:39.654Z,24.3
2019-04-23T12:16:50.502Z,24.4
2019-04-23T12:17:50.808Z,24.3
2019-04-23T12:18:58.155Z,24.4
2019-04-23T12:20:41.267Z,24.4
2019-04-23T12:21:52.464Z,24.5
2019-04-23T12:22:51.287Z,24.6
2019-04-23T12:25:06.546Z,24.4
2019-04-23T12:26:15.520Z,24.2
2019-04-23T12:27:00.132Z,24.3
2019-04-23T12:27:42.436Z,24.7
2019-04-23T12:29:52.303Z,24.5
2019-04-23T12:32:09.012Z,24.9
2019-04-23T12:33:21.449Z,25.2
2019-04-23T12:34:09.872Z,25.0
2019-04-23T12:35:03.747Z,25.0
2019-04-23T12:36:09.253Z,24.6
2019-04-23T12:37:06.362Z,24.5
2019-04-23T12:38:14.211Z,24.7
2019-04-23T12:39:14.878Z,24.8
2019-04-23T12:41:14.692Z,24.2
2019-04-23T12:42:38.301Z,24.4
2019-04-23T12:44:17.825Z,24.3
2019-04-23T12:46:19.856Z,24.6
2019-04-23T12:47:36.301Z,25.0
2019-04-23T12:51:37.969Z,25.1
2019-04-23T12:53:30.589Z,24.9
2019-04-23T12:54:42.636Z,24.9
2019-04-23T12:56:46.428Z,24.4
2019-04-23T12:57:34.375Z,24.6
2019-04-23T12:58:38.215Z,25.0
2019-04-23T12:59:36.803Z,25.3
2019-04-23T13:01:44.267Z,25.1
2019-04-23T13:02:48.568Z,24.6
2019-04-23T13:03:40.160Z,24.7
2019-04-23T13:04:51.757Z,24.4
2019-04-23T13:05:34.197Z,24.6
2019-04-23T13:06:47.983Z,24.6
2019-04-23T13:07:43.571Z,24.9
2019-04-23T13:09:01.471Z,24.7
2019-04-23T13:09:53.610Z,24.3
2019-04-23T13:10:45.284Z,24.0
2019-04-23T13:11:49.685Z,24.3
2019-04-23T13:13:04.497Z,24.4
2019-04-23T13:13:56.369Z,24.8
2019-04-23T13:14:56.039Z,25.1
2019-04-23T13:15:55.220Z,24.9
2019-04-23T13:17:22.280Z,25.2
2019-04-23T13:17:53.840Z,25.0
2019-04-23T13:19:03.578Z,25.0
2019-04-23T13:20:00.555Z,25.0
2019-04-23T13:21:14.287Z,25.0
2019-04-23T13:22:07.558Z,25.1
2019-04-23T13:23:15.231Z,25.1
2019-04-23T13:24:04.164Z,24.8
2019-04-23T13:25:10.119Z,24.7
2019-04-23T13:26:05.697Z,25.0
2019-04-23T13:27:12.017Z,24.9
2019-04-23T13:29:24.579Z,24.6
2019-04-23T13:31:18.107Z,24.7
2019-04-23T13:32:23.587Z,24.8
2019-04-23T13:33:30.747Z,24.8
2019-04-23T13:34:23.029Z,25.0
2019-04-23T13:36:27.947Z,25.4
2019-04-23T13:37:31.544Z,25.4
2019-04-23T13:38:34.339Z,25.4
2019-04-23T13:39:24.590Z,24.8
2019-04-23T13:40:35.279Z,25.0
2019-04-23T13:41:33.508Z,25.2
2019-04-23T13:43:37.956Z,25.4
2019-04-23T13:44:36.485Z,25.8
2019-04-23T13:45:56.421Z,25.7
2019-04-23T13:46:36.804Z,25.8
2019-04-23T13:47:47.261Z,25.7
2019-04-23T13:48:34.481Z,25.5
2019-04-23T13:49:49.282Z,25.5
2019-04-23T13:50:49.898Z,25.5
2019-04-23T13:53:18.385Z,25.3
2019-04-23T13:54:24.091Z,25.2
2019-04-23T13:55:09.332Z,25.4
2019-04-23T13:56:01.946Z,25.2
2019-04-23T13:57:36.540Z,24.9
2019-04-23T13:58:15.024Z,25.2
2019-04-23T14:00:07.111Z,25.0
2019-04-23T14:02:17.062Z,25.0
2019-04-23T14:03:12.956Z,25.0
2019-04-23T14:04:18.090Z,25.2
2019-04-23T14:05:17.659Z,24.8
2019-04-23T14:07:24.895Z,24.4
2019-04-23T14:08:31.063Z,24.4
2019-04-23T14:09:31.971Z,24.3
2019-04-23T14:12:24.156Z,24.5
2019-04-23T14:14:43.740Z,24.6
2019-04-23T14:19:34.299Z,24.9
2019-04-23T14:20:34.282Z,25.1
2019-04-23T14:21:42.400Z,25.2
2019-04-23T14:23:59.498Z,24.7
2019-04-23T14:25:04.912Z,24.6
2019-04-23T14:25:50.677Z,24.7
2019-04-23T14:26:38.358Z,24.3
2019-04-23T14:27:52.374Z,24.6
2019-04-23T14:29:56.501Z,24.3
2019-04-23T14:30:53.477Z,24.2
2019-04-23T14:31:53.289Z,24.1
2019-04-23T14:32:53.723Z,24.2
2019-04-23T14:34:01.651Z,24.4
2019-04-23T14:35:04.281Z,24.6
2019-04-23T14:35:50.920Z,24.7
2019-04-23T14:37:00.988Z,24.4
2019-04-23T14:38:09.771Z,24.4
2019-04-23T14:39:04.239Z,24.4
2019-04-23T14:40:01.569Z,23.7
2019-04-23T14:42:12.392Z,23.6
2019-04-23T14:43:06.456Z,23.6
2019-04-23T14:44:13.055Z,23.5
2019-04-23T14:45:25.349Z,23.4
2019-04-23T14:46:35.236Z,23.4
2019-04-23T14:47:22.329Z,23.4
2019-04-23T14:48:17.705Z,23.1
2019-04-23T14:49:25.900Z,23.0
2019-04-23T14:50:28.153Z,23.0
2019-04-23T14:52:21.418Z,23.0
2019-04-23T14:53:18.224Z,22.9
2019-04-23T14:54:23.529Z,23.0
2019-04-23T14:57:42.500Z,22.8
2019-04-23T14:59:13.495Z,22.7
2019-04-23T15:01:36.279Z,22.7
2019-04-23T15:02:36.591Z,22.7
2019-04-23T15:04:43.675Z,22.6
2019-04-23T15:05:45.790Z,22.5
2019-04-23T15:07:46.552Z,22.4
2019-04-23T15:09:43.097Z,22.4
2019-04-23T15:10:57.417Z,22.4
2019-04-23T15:13:01.849Z,22.3
2019-04-23T15:13:52.160Z,22.2
2019-04-23T15:14:59.851Z,22.2
2019-04-23T15:16:04.270Z,22.2
2019-04-23T15:16:54.704Z,22.1
2019-04-23T15:17:56.092Z,22.0
2019-04-23T15:19:55.155Z,22.0
2019-04-23T15:21:25.547Z,22.0
2019-04-23T15:23:02.790Z,21.8
2019-04-23T15:24:04.061Z,21.9
2019-04-23T15:26:51.152Z,22.0
2019-04-23T15:28:07.577Z,21.9
2019-04-23T15:28:52.388Z,22.0
2019-04-23T15:29:58.192Z,22.0
2019-04-23T15:32:18.691Z,21.6
2019-04-23T15:33:19.225Z,21.6
2019-04-23T15:34:17.687Z,21.4
2019-04-23T15:35:22.087Z,21.3
2019-04-23T15:36:47.097Z,21.3
2019-04-23T15:39:21.394Z,21.4
2019-04-23T15:40:20.945Z,21.3
2019-04-23T15:42:40.345Z,21.4
2019-04-23T15:43:49.549Z,21.3
2019-04-23T15:44:23.098Z,21.4
2019-04-23T15:45:28.538Z,21.3
2019-04-23T15:46:37.187Z,21.2
2019-04-23T15:47:32.981Z,21.2
2019-04-23T15:48:31.391Z,21.2
2019-04-23T15:50:53.850Z,21.2
2019-04-23T15:51:38.967Z,21.2
2019-04-23T15:52:44.276Z,21.1
2019-04-23T15:53:40.994Z,21.0
2019-04-23T15:54:37.170Z,21.0
2019-04-23T15:55:54.406Z,21.0
2019-04-23T15:56:50.095Z,20.9
2019-04-23T15:58:00.893Z,20.9
2019-04-23T15:59:15.190Z,20.9
2019-04-23T15:59:47.945Z,20.8
2019-04-23T16:00:55.800Z,21.1
2019-04-23T16:01:41.215Z,21.0
2019-04-23T16:02:24.651Z,20.9
2019-04-23T16:03:28.984Z,21.0
2019-04-23T16:04:27.496Z,20.9
2019-04-23T16:05:27.824Z,20.8
2019-04-23T16:06:30.928Z,20.7
2019-04-23T16:07:44.213Z,20.7
2019-04-23T16:09:04.762Z,20.6
2019-04-23T16:10:04.327Z,20.6
2019-04-23T16:11:10.352Z,20.6
2019-04-23T16:11:52.649Z,20.6
2019-04-23T16:13:02.492Z,20.6
2019-04-23T16:14:16.724Z,20.6
2019-04-23T16:16:10.635Z,20.6
2019-04-23T16:17:08.228Z,20.6
2019-04-23T16:18:18.927Z,20.6
2019-04-23T16:19:17.614Z,20.5
2019-04-23T16:20:17.404Z,20.6
2019-04-23T16:22:11.032Z,20.6
2019-04-23T16:23:17.794Z,20.6
2019-04-23T16:25:13.333Z,20.5
2019-04-23T16:26:23.085Z,20.5
2019-04-23T16:28:38.471Z,20.5
2019-04-23T16:31:32.171Z,20.4
2019-04-23T16:33:22.034Z,20.3
2019-04-23T16:34:29.196Z,20.3
2019-04-23T16:35:33.008Z,20.3
2019-04-23T16:36:35.884Z,20.3
2019-04-23T16:37:36.187Z,20.2
2019-04-23T16:38:38.798Z,20.3
2019-04-23T16:39:39.307Z,20.1
2019-04-23T16:40:39.524Z,20.2
2019-04-23T16:41:39.948Z,20.2
2019-04-23T16:42:39.985Z,20.3
2019-04-23T16:43:42.191Z,20.2
2019-04-23T16:45:01.214Z,20.3
2019-04-23T16:45:45.489Z,20.2
2019-04-23T16:46:54.203Z,20.2
2019-04-23T16:47:46.829Z,20.2
2019-04-23T16:48:58.186Z,20.2
2019-04-23T16:49:57.581Z,20.2
2019-04-23T16:51:12.261Z,20.0
2019-04-23T16:51:45.962Z,20.0
2019-04-23T16:53:02.956Z,20.1
2019-04-23T16:53:54.239Z,20.0
2019-04-23T16:56:04.225Z,20.1